createdAt,value
2019-04-20T00:01:58.177Z,6.85
2019-04-20T00:04:30.433Z,7.05
2019-04-20T00:06:59.185Z,7.70
2019-04-20T00:09:35.307Z,7.20
2019-04-20T00:12:12.738Z,7.12
2019-04-20T00:14:40.533Z,6.42
2019-04-20T00:17:11.639Z,6.80
2019-04-20T00:19:47.549Z,7.47
2019-04-20T00:22:24.664Z,7.58
2019-04-20T00:25:16.966Z,6.37
2019-04-20T00:28:21.074Z,7.95
2019-04-20T00:30:52.925Z,6.15
2019-04-20T00:33:25.761Z,6.95
2019-04-20T00:35:42.130Z,7.45
2019-04-20T00:38:14.001Z,8.10
2019-04-20T00:40:45.544Z,6.08
2019-04-20T00:43:22.069Z,7.58
2019-04-20T00:45:53.793Z,7.15
2019-04-20T00:48:33.879Z,7.10
2019-04-20T00:51:17.429Z,7.22
2019-04-20T00:53:34.554Z,7.08
2019-04-20T00:56:03.323Z,6.70
2019-04-20T00:58:50.893Z,8.05
2019-04-20T01:01:31.093Z,6.58
2019-04-20T01:03:58.217Z,7.70
2019-04-20T01:06:47.363Z,7.42
2019-04-20T01:09:26.608Z,7.70
2019-04-20T01:11:58.594Z,7.37
2019-04-20T01:14:36.046Z,7.62
2019-04-20T01:17:11.660Z,6.25
2019-04-20T01:19:36.430Z,8.25
2019-04-20T01:22:14.769Z,6.85
2019-04-20T01:24:45.389Z,6.65
2019-04-20T01:27:27.369Z,6.55
2019-04-20T01:29:51.424Z,6.92
2019-04-20T01:32:31.073Z,6.83
2019-04-20T01:35:04.496Z,6.90
2019-04-20T01:37:38.379Z,6.72
2019-04-20T01:40:03.015Z,6.15
2019-04-20T01:42:34.123Z,8.88
2019-04-20T01:45:16.833Z,6.78
2019-04-20T01:47:45.575Z,7.20
2019-04-20T01:50:18.231Z,6.47
2019-04-20T01:52:53.836Z,6.97
2019-04-20T01:55:44.068Z,7.30
2019-04-20T01:58:29.993Z,7.83
2019-04-20T02:01:00.735Z,6.72
2019-04-20T02:03:48.951Z,7.22
2019-04-20T02:06:22.252Z,8.33
2019-04-20T02:08:58.360Z,8.55
2019-04-20T02:11:29.622Z,7.03
2019-04-20T02:14:03.246Z,6.83
2019-04-20T02:16:39.204Z,6.67
2019-04-20T02:19:21.440Z,7.40
2019-04-20T02:21:55.350Z,6.72
2019-04-20T02:24:12.802Z,5.90
2019-04-20T02:26:45.147Z,6.42
2019-04-20T02:29:43.033Z,8.18
2019-04-20T02:32:26.589Z,7.65
2019-04-20T02:35:36.203Z,6.50
2019-04-20T02:40:50.613Z,7.22
2019-04-20T02:43:25.324Z,11.33
2019-04-20T02:46:04.007Z,6.85
2019-04-20T02:48:25.658Z,7.65
2019-04-20T02:53:40.631Z,7.35
2019-04-20T02:56:03.897Z,7.70
2019-04-20T02:58:31.149Z,7.80
2019-04-20T03:01:22.883Z,6.65
2019-04-20T03:03:43.632Z,6.65
2019-04-20T03:06:23.350Z,6.50
2019-04-20T03:09:05.003Z,6.58
2019-04-20T03:11:48.501Z,7.92
2019-04-20T03:14:03.649Z,7.87
2019-04-20T03:16:38.728Z,6.90
2019-04-20T03:19:14.170Z,6.45
2019-04-20T03:21:51.407Z,7.28
2019-04-20T03:24:28.202Z,8.00
2019-04-20T03:27:07.921Z,7.70
2019-04-20T03:29:56.596Z,6.70
2019-04-20T03:32:57.354Z,6.92
2019-04-20T03:35:13.510Z,7.03
2019-04-20T03:37:44.101Z,9.78
2019-04-20T03:40:08.585Z,8.05
2019-04-20T03:42:26.696Z,6.45
2019-04-20T03:45:04.084Z,6.55
2019-04-20T03:47:43.747Z,7.20
2019-04-20T03:50:33.556Z,7.35
2019-04-20T03:53:13.064Z,6.92
2019-04-20T03:55:50.159Z,7.25
2019-04-20T03:58:24.357Z,7.05
2019-04-20T04:01:08.301Z,6.33
2019-04-20T04:04:05.323Z,7.05
2019-04-20T04:06:24.255Z,6.80
2019-04-20T04:09:06.422Z,6.90
2019-04-20T04:11:40.302Z,7.17
2019-04-20T04:13:54.644Z,6.67
2019-04-20T04:16:34.172Z,7.08
2019-04-20T04:19:08.971Z,8.35
2019-04-20T04:21:49.716Z,7.03
2019-04-20T04:24:19.290Z,7.35
2019-04-20T04:26:51.227Z,6.90
2019-04-20T04:29:34.560Z,7.33
2019-04-20T04:32:14.908Z,7.22
2019-04-20T04:34:34.304Z,7.75
2019-04-20T04:37:13.499Z,7.28
2019-04-20T04:39:42.862Z,8.50
2019-04-20T04:42:34.294Z,7.75
2019-04-20T04:44:41.126Z,7.70
2019-04-20T04:47:06.338Z,9.88
2019-04-20T04:49:40.183Z,9.33
2019-04-20T04:52:13.360Z,8.55
2019-04-20T04:54:50.360Z,9.50
2019-04-20T04:57:15.656Z,8.88
2019-04-20T04:59:48.638Z,9.10
2019-04-20T05:02:22.746Z,11.45
2019-04-20T05:05:30.921Z,9.60
2019-04-20T05:07:51.963Z,8.48
2019-04-20T05:10:16.060Z,9.55
2019-04-20T05:12:48.176Z,11.28
2019-04-20T05:15:36.422Z,8.18
2019-04-20T05:18:12.914Z,9.85
2019-04-20T05:20:47.602Z,8.78
2019-04-20T05:23:35.177Z,7.75
2019-04-20T05:26:19.722Z,8.00
2019-04-20T05:28:48.591Z,9.58
2019-04-20T05:31:13.090Z,8.30
2019-04-20T05:34:08.100Z,9.43
2019-04-20T05:36:36.865Z,8.90
2019-04-20T05:39:16.124Z,8.80
2019-04-20T05:41:44.098Z,8.28
2019-04-20T05:44:26.032Z,8.10
2019-04-20T05:47:06.706Z,7.95
2019-04-20T05:49:34.855Z,7.12
2019-04-20T05:52:25.024Z,7.45
2019-04-20T05:54:44.655Z,7.25
2019-04-20T05:57:25.038Z,8.20
2019-04-20T05:59:57.200Z,7.47
2019-04-20T06:02:27.245Z,7.70
2019-04-20T06:07:30.296Z,8.13
2019-04-20T06:10:06.089Z,9.15
2019-04-20T06:12:37.319Z,7.80
2019-04-20T06:15:12.967Z,7.70
2019-04-20T06:18:06.332Z,8.80
2019-04-20T06:20:48.469Z,8.48
2019-04-20T06:23:47.774Z,7.95
2019-04-20T06:26:38.547Z,9.58
2019-04-20T06:28:40.011Z,8.78
2019-04-20T06:31:21.566Z,8.43
2019-04-20T06:39:34.839Z,7.67
2019-04-20T06:44:46.369Z,7.83
2019-04-20T06:47:15.226Z,9.90
2019-04-20T06:49:56.709Z,7.55
2019-04-20T06:55:03.046Z,7.53
2019-04-20T06:57:43.195Z,9.33
2019-04-20T07:00:15.523Z,7.28
2019-04-20T07:05:21.114Z,7.75
2019-04-20T07:07:53.388Z,9.00
2019-04-20T07:10:49.491Z,7.72
2019-04-20T07:12:58.033Z,7.47
2019-04-20T07:15:28.527Z,7.60
2019-04-20T07:18:08.110Z,7.78
2019-04-20T07:21:07.058Z,7.42
2019-04-20T07:23:40.697Z,7.80
2019-04-20T07:26:17.014Z,8.15
2019-04-20T07:28:50.940Z,7.45
2019-04-20T07:31:17.223Z,10.32
2019-04-20T07:33:52.125Z,7.90
2019-04-20T07:36:26.584Z,7.90
2019-04-20T07:39:00.686Z,8.43
2019-04-20T07:41:43.320Z,7.50
2019-04-20T07:44:11.879Z,8.38
2019-04-20T07:46:50.614Z,8.25
2019-04-20T07:49:07.314Z,7.75
2019-04-20T07:51:28.263Z,8.03
2019-04-20T07:54:23.202Z,10.32
2019-04-20T07:56:52.164Z,8.45
2019-04-20T07:59:13.870Z,7.40
2019-04-20T08:02:23.542Z,7.92
2019-04-20T08:04:55.321Z,12.07
2019-04-20T08:07:14.601Z,8.13
2019-04-20T08:09:55.023Z,9.75
2019-04-20T08:12:58.744Z,7.15
2019-04-20T08:15:40.954Z,8.00
2019-04-20T08:18:16.803Z,9.23
2019-04-20T08:20:33.117Z,8.20
2019-04-20T08:23:11.274Z,26.20
2019-04-20T08:25:30.598Z,11.75
2019-04-20T08:28:16.786Z,10.18
2019-04-20T08:31:18.295Z,8.48
2019-04-20T08:34:06.234Z,10.32
2019-04-20T08:36:36.008Z,8.73
2019-04-20T08:41:39.803Z,8.70
2019-04-20T08:44:42.885Z,8.33
2019-04-20T08:47:01.881Z,8.73
2019-04-20T08:49:29.579Z,8.63
2019-04-20T08:52:07.856Z,7.37
2019-04-20T08:54:26.735Z,7.00
2019-04-20T08:56:51.024Z,9.05
2019-04-20T08:59:14.633Z,8.25
2019-04-20T09:01:46.773Z,7.50
2019-04-20T09:04:25.017Z,7.78
2019-04-20T09:07:04.097Z,7.12
2019-04-20T09:10:03.502Z,7.53
2019-04-20T09:12:15.788Z,8.18
2019-04-20T09:14:34.739Z,8.55
2019-04-20T09:17:14.091Z,7.70
2019-04-20T09:19:52.868Z,8.43
2019-04-20T09:22:46.610Z,7.12
2019-04-20T09:28:12.448Z,5.95
2019-04-20T09:30:49.881Z,7.00
2019-04-20T09:33:45.889Z,7.60
2019-04-20T09:36:19.235Z,6.65
2019-04-20T09:39:08.656Z,7.42
2019-04-20T09:42:05.075Z,7.55
2019-04-20T09:44:24.590Z,6.17
2019-04-20T09:46:58.176Z,8.00
2019-04-20T09:49:39.972Z,6.20
2019-04-20T09:52:17.239Z,7.75
2019-04-20T09:54:52.816Z,10.00
2019-04-20T09:57:26.694Z,8.30
2019-04-20T09:59:57.272Z,7.08
2019-04-20T10:02:23.135Z,7.10
2019-04-20T10:04:47.343Z,8.45
2019-04-20T10:07:23.551Z,7.10
2019-04-20T10:09:52.150Z,7.37
2019-04-20T10:12:24.287Z,9.03
2019-04-20T10:14:57.634Z,7.12
2019-04-20T10:17:31.723Z,9.38
2019-04-20T10:20:09.616Z,7.47
2019-04-20T10:22:36.168Z,7.45
2019-04-20T10:25:08.666Z,7.62
2019-04-20T10:27:42.058Z,7.67
2019-04-20T10:30:14.486Z,9.10
2019-04-20T10:32:50.507Z,8.35
2019-04-20T10:35:19.659Z,11.33
2019-04-20T10:37:55.675Z,7.58
2019-04-20T10:40:37.846Z,7.80
2019-04-20T10:43:01.548Z,8.08
2019-04-20T10:45:34.927Z,10.80
2019-04-20T10:48:06.380Z,7.17
2019-04-20T10:50:38.904Z,6.92
2019-04-20T10:53:12.083Z,6.87
2019-04-20T10:55:45.158Z,7.00
2019-04-20T10:58:17.688Z,6.92
2019-04-20T11:00:50.242Z,7.60
2019-04-20T11:03:23.013Z,7.62
2019-04-20T11:05:54.244Z,8.55
2019-04-20T11:08:26.577Z,6.85
2019-04-20T11:11:09.057Z,7.53
2019-04-20T11:13:30.770Z,8.08
2019-04-20T11:16:02.433Z,7.37
2019-04-20T11:18:33.668Z,7.55
2019-04-20T11:21:05.328Z,8.23
2019-04-20T11:23:36.640Z,7.58
2019-04-20T11:26:08.596Z,8.03
2019-04-20T11:28:40.044Z,8.55
2019-04-20T11:31:12.470Z,8.08
2019-04-20T11:33:44.307Z,8.83
2019-04-20T11:36:17.020Z,8.60
2019-04-20T11:38:49.400Z,7.62
2019-04-20T11:41:25.646Z,9.23
2019-04-20T11:43:54.034Z,7.85
2019-04-20T11:46:25.332Z,7.55
2019-04-20T11:48:57.311Z,7.65
2019-04-20T11:51:29.763Z,8.23
2019-04-20T11:54:01.280Z,7.53
2019-04-20T11:56:38.143Z,8.75
2019-04-20T11:59:07.278Z,8.45
2019-04-20T12:01:56.583Z,7.75
2019-04-20T12:04:40.388Z,9.03
2019-04-20T12:07:01.670Z,8.33
2019-04-20T12:09:33.578Z,8.28
2019-04-20T12:12:17.810Z,7.87
2019-04-20T12:14:38.783Z,9.55
2019-04-20T12:17:11.485Z,8.70
2019-04-20T12:19:43.863Z,7.97
2019-04-20T12:22:16.042Z,8.50
2019-04-20T12:24:47.864Z,9.03
2019-04-20T12:27:20.844Z,9.10
2019-04-20T12:29:52.294Z,8.90
2019-04-20T12:32:29.595Z,8.95
2019-04-20T12:34:58.213Z,9.68
2019-04-20T12:37:29.556Z,9.18
2019-04-20T12:40:01.213Z,9.53
2019-04-20T12:42:34.863Z,8.73
2019-04-20T12:45:08.082Z,9.40
2019-04-20T12:47:39.701Z,8.90
2019-04-20T12:50:13.826Z,9.43
2019-04-20T12:52:46.245Z,9.60
2019-04-20T12:55:19.262Z,9.95
2019-04-20T12:57:50.607Z,11.45
2019-04-20T13:00:29.774Z,10.03
2019-04-20T13:03:01.502Z,9.58
2019-04-20T13:05:33.908Z,9.38
2019-04-20T13:08:06.217Z,9.10
2019-04-20T13:10:40.172Z,10.08
2019-04-20T13:13:21.218Z,9.25
2019-04-20T13:16:12.259Z,9.88
2019-04-20T13:18:59.421Z,9.35
2019-04-20T13:21:32.421Z,9.48
2019-04-20T13:24:04.776Z,9.03
2019-04-20T13:26:40.678Z,9.48
2019-04-20T13:29:12.943Z,9.68
2019-04-20T13:31:44.367Z,9.38
2019-04-20T13:34:17.229Z,9.78
2019-04-20T13:36:48.670Z,10.13
2019-04-20T13:39:20.035Z,9.80
2019-04-20T13:42:03.483Z,9.53
2019-04-20T13:44:24.341Z,10.58
2019-04-20T13:46:56.774Z,9.00
2019-04-20T13:49:29.142Z,9.28
2019-04-20T13:52:02.526Z,10.30
2019-04-20T13:54:34.632Z,9.40
2019-04-20T13:57:08.114Z,9.35
2019-04-20T13:59:44.088Z,11.40
2019-04-20T14:02:40.693Z,9.55
2019-04-20T14:05:12.885Z,10.00
2019-04-20T14:07:45.227Z,9.60
2019-04-20T14:10:17.526Z,8.70
2019-04-20T14:12:57.248Z,9.48
2019-04-20T14:15:22.946Z,9.50
2019-04-20T14:17:57.194Z,9.53
2019-04-20T14:20:29.755Z,9.33
2019-04-20T14:23:01.189Z,9.70
2019-04-20T14:25:33.270Z,9.83
2019-04-20T14:28:04.979Z,10.18
2019-04-20T14:30:37.302Z,11.55
2019-04-20T14:33:08.805Z,12.25
2019-04-20T14:35:40.897Z,9.68
2019-04-20T14:38:13.135Z,10.43
2019-04-20T14:40:46.345Z,9.30
2019-04-20T14:43:19.221Z,9.88
2019-04-20T14:45:52.460Z,10.28
2019-04-20T14:48:24.914Z,9.95
2019-04-20T14:50:56.301Z,11.68
2019-04-20T14:53:29.385Z,9.88
2019-04-20T14:56:01.844Z,10.18
2019-04-20T14:58:59.722Z,9.63
2019-04-20T15:01:36.771Z,9.63
2019-04-20T15:04:13.496Z,12.20
2019-04-20T15:06:42.124Z,11.30
2019-04-20T15:09:14.801Z,9.08
2019-04-20T15:11:46.665Z,12.43
2019-04-20T15:14:18.781Z,9.93
2019-04-20T15:16:52.842Z,10.60
2019-04-20T15:19:29.503Z,9.80
2019-04-20T15:22:03.266Z,9.28
2019-04-20T15:24:35.588Z,10.70
2019-04-20T15:27:06.976Z,8.75
2019-04-20T15:29:38.251Z,11.08
2019-04-20T15:32:10.251Z,8.53
2019-04-20T15:34:42.795Z,9.25
2019-04-20T15:37:14.557Z,9.03
2019-04-20T15:39:47.326Z,8.60
2019-04-20T15:42:19.190Z,8.60
2019-04-20T15:44:51.426Z,9.48
2019-04-20T15:47:22.849Z,9.28
2019-04-20T15:49:54.012Z,8.78
2019-04-20T15:52:29.431Z,9.20
2019-04-20T15:55:01.716Z,9.45
2019-04-20T15:57:33.121Z,8.78
2019-04-20T16:00:06.745Z,9.25
2019-04-20T16:02:51.485Z,8.15
2019-04-20T16:05:47.060Z,8.23
2019-04-20T16:08:32.641Z,8.13
2019-04-20T16:11:05.038Z,10.30
2019-04-20T16:13:40.400Z,10.32
2019-04-20T16:16:10.130Z,9.28
2019-04-20T16:18:43.081Z,10.30
2019-04-20T16:21:21.913Z,8.23
2019-04-20T16:24:10.905Z,9.18
2019-04-20T16:27:05.399Z,7.72
2019-04-20T16:29:37.832Z,7.95
2019-04-20T16:32:09.337Z,8.10
2019-04-20T16:34:41.297Z,7.70
2019-04-20T16:37:14.813Z,8.43
2019-04-20T16:39:46.521Z,7.40
2019-04-20T16:42:18.302Z,9.53
2019-04-20T16:44:49.617Z,7.45
2019-04-20T16:47:22.004Z,7.97
2019-04-20T16:49:55.067Z,9.28
2019-04-20T16:52:26.421Z,8.95
2019-04-20T16:54:57.813Z,7.42
2019-04-20T16:57:29.847Z,8.70
2019-04-20T17:00:02.999Z,6.72
2019-04-20T17:02:36.277Z,6.55
2019-04-20T17:05:07.570Z,6.37
2019-04-20T17:07:42.884Z,6.12
2019-04-20T17:10:17.677Z,6.37
2019-04-20T17:12:51.350Z,7.60
2019-04-20T17:15:27.579Z,6.00
2019-04-20T17:17:59.355Z,6.00
2019-04-20T17:20:32.765Z,7.33
2019-04-20T17:23:07.046Z,8.83
2019-04-20T17:25:37.924Z,6.05
2019-04-20T17:28:28.899Z,5.55
2019-04-20T17:31:09.121Z,7.60
2019-04-20T17:34:02.621Z,5.72
2019-04-20T17:36:27.957Z,5.85
2019-04-20T17:39:00.570Z,5.15
2019-04-20T17:41:52.951Z,4.80
2019-04-20T17:44:19.903Z,5.75
2019-04-20T17:46:49.192Z,5.28
2019-04-20T17:49:25.716Z,5.72
2019-04-20T17:52:05.027Z,5.78
2019-04-20T17:54:39.912Z,5.42
2019-04-20T17:57:11.372Z,6.58
2019-04-20T17:59:53.229Z,6.12
2019-04-20T18:03:03.263Z,7.75
2019-04-20T18:05:57.071Z,6.10
2019-04-20T18:08:33.896Z,5.58
2019-04-20T18:10:55.056Z,5.40
2019-04-20T18:13:21.759Z,5.70
2019-04-20T18:16:14.260Z,5.65
2019-04-20T18:18:55.054Z,6.33
2019-04-20T18:21:34.788Z,5.72
2019-04-20T18:24:14.438Z,5.12
2019-04-20T18:26:57.680Z,5.67
2019-04-20T18:29:32.840Z,5.00
2019-04-20T18:32:01.898Z,8.43
2019-04-20T18:34:40.378Z,5.50
2019-04-20T18:37:16.694Z,6.72
2019-04-20T18:39:53.374Z,5.35
2019-04-20T18:42:26.290Z,5.25
2019-04-20T18:45:09.130Z,5.83
2019-04-20T18:47:45.512Z,5.65
2019-04-20T18:50:09.430Z,6.10
2019-04-20T18:52:31.635Z,6.60
2019-04-20T18:55:06.321Z,7.47
2019-04-20T18:57:36.755Z,7.35
2019-04-20T19:00:20.123Z,8.60
2019-04-20T19:02:52.098Z,8.35
2019-04-20T19:05:19.905Z,7.22
2019-04-20T19:07:59.291Z,11.70
2019-04-20T19:10:29.616Z,7.58
2019-04-20T19:13:06.272Z,7.37
2019-04-20T19:16:06.863Z,10.35
2019-04-20T19:18:58.509Z,9.08
2019-04-20T19:21:17.226Z,8.08
2019-04-20T19:23:58.036Z,9.50
2019-04-20T19:26:23.318Z,8.73
2019-04-20T19:28:57.859Z,12.85
2019-04-20T19:31:42.551Z,13.85
2019-04-20T19:34:18.803Z,17.45
2019-04-20T19:36:41.408Z,15.98
2019-04-20T19:39:28.759Z,10.75
2019-04-20T19:41:52.667Z,10.30
2019-04-20T19:44:27.518Z,11.83
2019-04-20T19:47:10.566Z,10.32
2019-04-20T19:49:35.659Z,8.43
2019-04-20T19:52:28.202Z,11.70
2019-04-20T19:54:46.766Z,9.10
2019-04-20T19:57:22.560Z,8.33
2019-04-20T19:59:41.257Z,10.20
2019-04-20T20:02:09.674Z,8.75
2019-04-20T20:04:49.261Z,9.23
2019-04-20T20:07:22.056Z,9.58
2019-04-20T20:09:53.145Z,8.58
2019-04-20T20:12:21.293Z,9.13
2019-04-20T20:14:55.231Z,9.08
2019-04-20T20:17:48.545Z,7.87
2019-04-20T20:20:33.160Z,10.30
2019-04-20T20:22:40.676Z,10.68
2019-04-20T20:25:07.529Z,9.73
2019-04-20T20:27:47.587Z,9.05
2019-04-20T20:30:22.751Z,9.30
2019-04-20T20:33:04.868Z,9.35
2019-04-20T20:35:24.995Z,10.28
2019-04-20T20:37:57.123Z,10.45
2019-04-20T20:40:31.182Z,9.73
2019-04-20T20:43:12.595Z,9.85
2019-04-20T20:45:38.478Z,10.13
2019-04-20T20:48:20.094Z,10.18
2019-04-20T20:50:53.304Z,10.80
2019-04-20T20:53:18.467Z,10.55
2019-04-20T20:55:47.975Z,10.28
2019-04-20T20:58:25.559Z,10.10
2019-04-20T21:01:02.185Z,9.63
2019-04-20T21:03:32.196Z,9.78
2019-04-20T21:05:57.878Z,11.90
2019-04-20T21:08:29.386Z,11.53
2019-04-20T21:11:04.814Z,11.08
2019-04-20T21:13:39.465Z,11.35
2019-04-20T21:16:13.429Z,9.13
2019-04-20T21:18:58.644Z,8.95
2019-04-20T21:21:31.444Z,8.48
2019-04-20T21:23:58.198Z,11.65
2019-04-20T21:26:29.429Z,15.95
2019-04-20T21:28:53.939Z,15.45
2019-04-20T21:31:28.967Z,15.20
2019-04-20T21:34:01.916Z,15.95
2019-04-20T21:36:33.473Z,16.20
2019-04-20T21:39:20.915Z,17.70
2019-04-20T21:41:49.723Z,17.37
2019-04-20T21:44:21.817Z,9.88
2019-04-20T21:46:53.977Z,9.88
2019-04-20T21:49:37.617Z,8.83
2019-04-20T21:52:00.874Z,12.13
2019-04-20T21:54:27.786Z,10.55
2019-04-20T21:57:03.860Z,12.73
2019-04-20T21:59:40.952Z,11.33
2019-04-20T22:02:16.692Z,14.30
2019-04-20T22:04:39.862Z,14.87
2019-04-20T22:07:12.477Z,13.45
2019-04-20T22:09:49.555Z,12.63
2019-04-20T22:12:20.254Z,15.13
2019-04-20T22:14:58.981Z,10.72
2019-04-20T22:17:28.962Z,8.35
2019-04-20T22:20:11.903Z,8.18
2019-04-20T22:22:50.941Z,8.75
2019-04-20T22:25:23.012Z,7.85
2019-04-20T22:27:38.935Z,9.83
2019-04-20T22:30:12.291Z,10.30
2019-04-20T22:32:47.010Z,8.43
2019-04-20T22:35:19.223Z,10.35
2019-04-20T22:38:10.900Z,8.58
2019-04-20T22:40:42.849Z,9.10
2019-04-20T22:43:19.146Z,8.75
2019-04-20T22:45:51.136Z,9.23
2019-04-20T22:48:21.002Z,8.23
2019-04-20T22:51:14.245Z,7.55
2019-04-20T22:53:42.897Z,8.23
2019-04-20T22:56:19.688Z,7.62
2019-04-20T22:58:46.040Z,8.73
2019-04-20T23:01:17.504Z,7.42
2019-04-20T23:03:38.881Z,7.67
2019-04-20T23:06:10.218Z,8.45
2019-04-20T23:08:42.481Z,7.72
2019-04-20T23:11:21.598Z,7.37
2019-04-20T23:13:49.598Z,7.95
2019-04-20T23:16:20.983Z,8.65
2019-04-20T23:18:54.091Z,8.55
2019-04-20T23:21:26.261Z,8.00
2019-04-20T23:24:00.408Z,8.03
2019-04-20T23:26:36.451Z,7.12
2019-04-20T23:29:04.986Z,7.78
2019-04-20T23:31:38.960Z,7.22
2019-04-20T23:34:16.162Z,7.75
2019-04-20T23:36:47.126Z,9.88
2019-04-20T23:39:16.898Z,8.00
2019-04-20T23:41:54.183Z,8.05
2019-04-20T23:44:52.127Z,7.85
2019-04-20T23:47:34.186Z,8.08
2019-04-20T23:50:20.911Z,7.47
2019-04-20T23:53:06.690Z,8.35
2019-04-20T23:55:18.372Z,7.67
2019-04-20T23:57:58.202Z,7.33
